Time;durP1;ratioP1;P1;durP2;ratioP2;P2;SDS_P1;SDS_P2;PMS_P1;PMS_P2;Temp;Humidity;BMP_temperature;BMP_pressure;BME280_temperature;BME280_humidity;BME280_pressure;Samples;Min_cycle;Max_cycle;Signal;HPM_P1;HPM_P2
2022/09/22 00:01:20;;;;;;;0.10;0.10;;;;;;;10.00;90.13;99661.34;5047545;28;20099;-73
2022/09/22 00:03:48;;;;;;;0.10;0.10;;;;;;;10.06;90.26;99666.53;5041844;28;20345;-70
2022/09/22 00:06:15;;;;;;;0.10;0.10;;;;;;;10.13;89.82;99677.19;5041846;28;20053;-71
2022/09/22 00:08:43;;;;;;;;;;;;;;;10.17;89.78;99670.06;5042538;28;20113;-72
2022/09/22 00:11:15;;;;;;;0.10;0.10;;;;;;;10.27;89.43;99676.63;5044825;28;19964;-71
2022/09/22 00:13:44;;;;;;;0.10;0.10;;;;;;;10.33;89.11;99675.50;5044923;28;20076;-72
2022/09/22 00:16:12;;;;;;;0.10;0.10;;;;;;;10.33;88.63;99679.06;5042345;28;20052;-72
2022/09/22 00:18:38;;;;;;;0.52;0.13;;;;;;;10.35;88.49;99681.50;5042628;28;20052;-71
2022/09/22 00:21:06;;;;;;;0.10;0.10;;;;;;;10.41;88.57;99685.09;5042724;28;20504;-71
2022/09/22 00:23:32;;;;;;;0.10;0.10;;;;;;;10.43;88.50;99677.44;5045614;28;20057;-71
2022/09/22 00:26:03;;;;;;;0.10;0.10;;;;;;;10.45;88.32;99680.69;5042558;28;20658;-70
2022/09/22 00:28:29;;;;;;;0.20;0.20;;;;;;;10.39;87.98;99679.88;5042752;28;20044;-70
2022/09/22 00:30:55;;;;;;;0.10;0.10;;;;;;;10.35;88.11;99676.88;5047693;28;20067;-71
2022/09/22 00:33:21;;;;;;;0.10;0.10;;;;;;;10.38;88.10;99674.69;5045282;28;20563;-72
2022/09/22 00:35:56;;;;;;;0.10;0.10;;;;;;;10.40;87.99;99684.25;5043845;28;20041;-72
2022/09/22 00:38:22;;;;;;;0.10;0.10;;;;;;;10.40;87.93;99681.53;5044764;28;20045;-72
2022/09/22 00:40:50;;;;;;;0.10;0.10;;;;;;;10.41;87.49;99677.72;5045349;28;20500;-72
2022/09/22 00:43:19;;;;;;;0.10;0.10;;;;;;;10.37;87.40;99668.38;5044516;28;20055;-71
2022/09/22 00:45:51;;;;;;;0.10;0.10;;;;;;;10.33;87.72;99678.25;5044424;28;20056;-71
2022/09/22 00:48:20;;;;;;;0.10;0.10;;;;;;;10.33;87.70;99676.34;5042705;28;20084;-71
2022/09/22 00:50:47;;;;;;;0.10;0.10;;;;;;;10.36;87.72;99678.53;5043377;28;20055;-70
2022/09/22 00:53:15;;;;;;;0.10;0.10;;;;;;;10.41;87.68;99664.06;5042860;28;20053;-72
2022/09/22 00:55:45;;;;;;;0.10;0.10;;;;;;;10.40;87.40;99673.31;5051212;28;20053;-70
2022/09/22 00:58:15;;;;;;;0.10;0.10;;;;;;;10.40;87.27;99673.31;5063218;28;20044;-71
2022/09/22 01:00:43;;;;;;;0.10;0.10;;;;;;;10.40;87.25;99669.75;5047001;28;20053;-71
2022/09/22 01:03:11;;;;;;;;;;;;;;;10.42;87.31;99670.31;5062722;28;20052;-71
2022/09/22 01:05:38;;;;;;;0.10;0.10;;;;;;;10.43;87.05;99661.88;5059681;28;20395;-70
2022/09/22 01:08:04;;;;;;;0.10;0.10;;;;;;;10.41;87.13;99658.59;5060391;28;20068;-70
2022/09/22 01:10:31;;;;;;;0.52;0.10;;;;;;;10.45;87.17;99670.59;5064791;28;20102;-71
2022/09/22 01:13:06;;;;;;;0.10;0.10;;;;;;;10.44;87.10;99662.66;5061659;28;20052;-70
2022/09/22 01:15:40;;;;;;;0.10;0.10;;;;;;;10.45;87.28;99667.88;5059357;28;20045;-72
2022/09/22 01:18:19;;;;;;;0.10;0.10;;;;;;;10.41;87.15;99669.53;5030190;28;20043;-72
2022/09/22 01:21:06;;;;;;;0.10;0.10;;;;;;;10.42;87.32;99662.97;5044124;28;20071;-72
2022/09/22 01:24:08;;;;;;;0.10;0.10;;;;;;;10.38;87.28;99670.06;5043166;28;20057;-71
2022/09/22 01:27:01;;;;;;;0.10;0.10;;;;;;;10.39;87.16;99671.69;5045389;28;20106;-72
2022/09/22 01:30:02;;;;;;;0.10;0.10;;;;;;;10.38;87.19;99675.53;5022902;28;20546;-72
2022/09/22 01:32:31;;;;;;;0.10;0.10;;;;;;;10.38;87.30;99678.25;5028076;28;20055;-72
2022/09/22 01:35:04;;;;;;;0.10;0.10;;;;;;;10.39;87.16;99666.22;5027727;28;20074;-72
2022/09/22 01:37:39;;;;;;;0.10;0.10;;;;;;;10.43;87.12;99663.75;5031215;28;20044;-73
2022/09/22 01:40:11;;;;;;;0.10;0.10;;;;;;;10.42;87.31;99656.66;5045122;28;20440;-72
2022/09/22 01:42:43;;;;;;;0.10;0.10;;;;;;;10.48;87.30;99661.84;5045785;28;20060;-71
2022/09/22 01:45:16;;;;;;;0.10;0.10;;;;;;;10.48;87.22;99655.56;5045088;28;20049;-72
2022/09/22 01:47:47;;;;;;;0.10;0.10;;;;;;;10.43;87.20;99661.03;5047448;28;20138;-72
2022/09/22 01:50:18;;;;;;;0.10;0.10;;;;;;;10.45;87.28;99661.56;5045979;28;20072;-72
2022/09/22 01:52:44;;;;;;;0.15;0.15;;;;;;;10.48;87.39;99659.09;5045124;28;20049;-72
2022/09/22 01:55:15;;;;;;;0.10;0.10;;;;;;;10.53;87.82;99658.28;5045481;28;20140;-71
2022/09/22 01:57:47;;;;;;;0.28;0.20;;;;;;;10.53;86.98;99666.47;5045257;28;20114;-70
2022/09/22 02:00:16;;;;;;;0.10;0.10;;;;;;;10.51;86.65;99665.94;5044888;28;20052;-71
2022/09/22 02:02:49;;;;;;;0.10;0.10;;;;;;;10.49;86.83;99668.13;5045929;28;20053;-72
2022/09/22 02:05:20;;;;;;;0.10;0.10;;;;;;;10.50;87.07;99675.25;5045671;28;20044;-72
2022/09/22 02:07:50;;;;;;;0.10;0.10;;;;;;;10.53;86.96;99671.94;5047544;28;20045;-72
2022/09/22 02:10:22;;;;;;;0.10;0.10;;;;;;;10.55;87.12;99674.41;5046756;28;20155;-72
2022/09/22 02:12:48;;;;;;;0.10;0.10;;;;;;;10.56;87.16;99671.38;5047643;28;20049;-72
2022/09/22 02:18:06;;;;;;;0.10;0.10;;;;;;;10.60;86.64;99680.66;5045621;28;20082;-72
2022/09/22 02:20:32;;;;;;;0.10;0.10;;;;;;;10.58;86.86;99682.06;5047715;28;20148;-72
2022/09/22 02:22:58;;;;;;;0.10;0.10;;;;;;;10.56;87.10;99690.53;5045999;28;20049;-72
2022/09/22 02:25:25;;;;;;;0.10;0.10;;;;;;;10.55;86.85;99677.94;5044707;28;20102;-72
2022/09/22 02:27:53;;;;;;;0.10;0.10;;;;;;;10.52;86.72;99672.22;5043630;28;20040;-72
2022/09/22 02:30:22;;;;;;;0.10;0.10;;;;;;;10.48;86.68;99674.72;5047295;28;20091;-71
2022/09/22 02:32:52;;;;;;;0.10;0.10;;;;;;;10.47;86.58;99673.06;5046164;28;20415;-72
2022/09/22 02:35:19;;;;;;;0.10;0.10;;;;;;;10.47;86.89;99682.06;5028663;28;20098;-72
2022/09/22 02:37:50;;;;;;;0.10;0.10;;;;;;;10.47;86.66;99675.81;5047027;28;20060;-71
2022/09/22 02:40:25;;;;;;;0.10;0.10;;;;;;;10.49;86.83;99676.34;5048839;28;20130;-73
2022/09/22 02:42:58;;;;;;;0.10;0.10;;;;;;;10.50;87.09;99669.78;5048497;28;20140;-69
2022/09/22 02:45:31;;;;;;;0.10;0.10;;;;;;;10.52;87.03;99672.22;5038322;28;20045;-72
2022/09/22 02:48:02;;;;;;;0.10;0.10;;;;;;;10.41;87.00;99664.06;5029271;28;20517;-72
2022/09/22 02:50:29;;;;;;;0.10;0.10;;;;;;;10.46;86.92;99665.97;5032264;28;20100;-72
2022/09/22 02:53:00;;;;;;;0.10;0.10;;;;;;;10.45;86.82;99664.31;5051099;28;20071;-71
2022/09/22 02:55:26;;;;;;;0.10;0.10;;;;;;;10.44;86.69;99673.59;5032747;28;20402;-71
2022/09/22 02:57:53;;;;;;;0.10;0.10;;;;;;;10.43;86.67;99674.69;5028121;28;20049;-71
2022/09/22 03:00:19;;;;;;;0.10;0.10;;;;;;;10.44;86.87;99670.88;5023810;28;20115;-72
2022/09/22 03:02:46;;;;;;;0.10;0.10;;;;;;;10.44;86.89;99663.50;5034059;28;20049;-71
2022/09/22 03:05:13;;;;;;;0.10;0.10;;;;;;;10.50;86.65;99677.97;5043880;28;20140;-72
2022/09/22 03:07:39;;;;;;;0.45;0.10;;;;;;;10.52;86.58;99674.94;5044673;28;20052;-72
2022/09/22 03:10:06;;;;;;;0.10;0.10;;;;;;;10.48;86.36;99675.50;5043927;28;20052;-72
2022/09/22 03:12:33;;;;;;;0.10;0.10;;;;;;;10.45;86.24;99676.06;5026761;28;20048;-71
2022/09/22 03:14:58;;;;;;;0.10;0.10;;;;;;;10.35;86.51;99676.88;5045353;28;20584;-72
2022/09/22 03:17:25;;;;;;;0.10;0.10;;;;;;;10.50;86.76;99689.72;5044898;28;20053;-71
2022/09/22 03:19:52;;;;;;;0.10;0.10;;;;;;;10.53;86.74;99687.50;5044536;28;20423;-70
2022/09/22 03:22:18;;;;;;;0.10;0.10;;;;;;;10.54;86.38;99697.38;5044105;28;20632;-71
2022/09/22 03:24:44;;;;;;;0.10;0.10;;;;;;;10.47;86.38;99698.47;5045964;28;20048;-72
2022/09/22 03:27:11;;;;;;;0.10;0.10;;;;;;;10.45;86.44;99699.84;5045263;28;20069;-72
2022/09/22 03:29:37;;;;;;;0.20;0.20;;;;;;;10.47;86.86;99700.41;5045942;28;20045;-72
2022/09/22 03:32:03;;;;;;;0.10;0.10;;;;;;;10.49;86.92;99698.22;5042864;28;20052;-73
2022/09/22 03:34:29;;;;;;;0.10;0.10;;;;;;;10.49;86.64;99707.22;5044625;28;20141;-72
2022/09/22 03:36:56;;;;;;;0.10;0.10;;;;;;;10.54;86.45;99708.31;5045807;28;20127;-71
2022/09/22 03:39:22;;;;;;;0.10;0.10;;;;;;;10.53;86.67;99712.97;5042889;28;20045;-72
2022/09/22 03:41:49;;;;;;;0.10;0.10;;;;;;;10.52;86.72;99715.94;5043689;28;20093;-72
2022/09/22 03:44:15;;;;;;;0.20;0.20;;;;;;;10.40;86.58;99697.94;5043668;28;20049;-72
2022/09/22 03:46:41;;;;;;;0.10;0.10;;;;;;;10.41;86.49;99706.97;5042824;28;20045;-72
2022/09/22 03:49:08;;;;;;;0.10;0.10;;;;;;;10.39;86.63;99709.13;5044764;28;20045;-72
2022/09/22 03:51:34;;;;;;;0.10;0.10;;;;;;;10.42;86.76;99708.59;5042515;28;20494;-71
2022/09/22 03:54:02;;;;;;;0.10;0.10;;;;;;;10.45;86.43;99713.50;5043204;28;20057;-72
2022/09/22 03:56:28;;;;;;;0.10;0.10;;;;;;;10.43;86.44;99708.34;5043964;28;20235;-72
2022/09/22 03:58:54;;;;;;;0.10;0.10;;;;;;;10.46;86.43;99713.25;5025107;28;20037;-71
2022/09/22 04:01:20;;;;;;;0.10;0.10;;;;;;;10.50;85.97;99708.03;5045926;28;20044;-72
2022/09/22 04:03:46;;;;;;;0.10;0.10;;;;;;;10.48;86.19;99707.50;5039832;28;20151;-72
2022/09/22 04:06:13;;;;;;;0.10;0.10;;;;;;;10.52;86.20;99710.47;5040510;28;20187;-72
2022/09/22 04:08:39;;;;;;;0.10;0.10;;;;;;;10.51;86.23;99701.47;5044694;28;20051;-71
2022/09/22 04:11:07;;;;;;;0.10;0.10;;;;;;;10.54;85.93;99702.84;5043373;28;20140;-72
2022/09/22 04:13:34;;;;;;;0.10;0.10;;;;;;;10.50;85.82;99700.66;5040260;28;20044;-72
2022/09/22 04:16:00;;;;;;;0.10;0.10;;;;;;;10.52;85.50;99703.13;5041697;28;20514;-72
2022/09/22 04:18:28;;;;;;;0.10;0.10;;;;;;;10.55;85.66;99701.75;5038967;28;20420;-71
2022/09/22 04:20:55;;;;;;;;;;;;;;;10.57;85.68;99692.16;5042038;28;20704;-71
2022/09/22 04:23:40;;;;;;;0.10;0.10;;;;;;;10.64;85.51;99703.63;5025145;28;19925;-73
2022/09/22 04:26:07;;;;;;;0.10;0.10;;;;;;;10.69;85.40;99699.25;5038888;28;20045;-72
2022/09/22 04:28:33;;;;;;;0.10;0.10;;;;;;;10.74;85.09;99705.53;5042181;28;20052;-72
2022/09/22 04:30:59;;;;;;;0.10;0.10;;;;;;;10.79;84.94;99704.69;5037682;28;20056;-73
2022/09/22 04:33:25;;;;;;;0.10;0.10;;;;;;;10.82;84.64;99697.81;5039159;28;20089;-73
2022/09/22 04:35:52;;;;;;;0.10;0.10;;;;;;;10.85;84.33;99700.00;5025064;28;20413;-73
2022/09/22 04:38:18;;;;;;;0.10;0.10;;;;;;;10.83;84.27;99696.72;5039345;28;20053;-71
2022/09/22 04:40:44;;;;;;;0.10;0.10;;;;;;;10.91;84.46;99705.16;5043873;28;20052;-72
2022/09/22 04:43:12;;;;;;;0.10;0.10;;;;;;;10.88;84.63;99702.19;5025117;28;20049;-72
2022/09/22 04:45:38;;;;;;;;;;;;;;;10.91;85.00;99701.63;5042791;28;20412;-72
2022/09/22 04:48:04;;;;;;;0.10;0.10;;;;;;;10.92;84.30;99709.53;4692201;28;9999743;-72
2022/09/22 04:50:31;;;;;;;0.10;0.10;;;;;;;10.91;84.62;99713.38;5040195;28;20102;-72
2022/09/22 04:53:05;;;;;;;0.10;0.10;;;;;;;10.90;84.45;99703.53;5056971;28;20044;-72
2022/09/22 04:55:31;;;;;;;0.10;0.10;;;;;;;10.92;84.43;99704.06;5060481;28;20062;-71
2022/09/22 04:57:57;;;;;;;0.10;0.10;;;;;;;10.95;84.22;99702.69;5059067;28;20109;-72
2022/09/22 05:00:27;;;;;;;0.10;0.10;;;;;;;11.02;84.08;99713.34;5053342;28;20041;-73
2022/09/22 05:02:54;;;;;;;0.10;0.10;;;;;;;10.98;83.68;99704.06;5039825;28;20455;-72
2022/09/22 05:05:22;;;;;;;0.10;0.10;;;;;;;11.00;83.57;99718.28;5043602;28;20168;-73
2022/09/22 05:07:53;;;;;;;0.20;0.20;;;;;;;10.98;83.60;99715.00;5045640;28;20073;-72
2022/09/22 05:10:23;;;;;;;0.10;0.10;;;;;;;10.90;83.84;99716.41;5044261;28;20055;-72
2022/09/22 05:12:49;;;;;;;0.13;0.10;;;;;;;10.82;83.62;99706.88;5022236;28;20405;-72
2022/09/22 05:15:15;;;;;;;0.10;0.10;;;;;;;10.82;83.91;99706.88;5026683;28;20045;-72
2022/09/22 05:17:46;;;;;;;0.10;0.10;;;;;;;10.82;83.70;99704.13;5040936;28;20183;-72
2022/09/22 05:20:13;;;;;;;0.10;0.10;;;;;;;10.82;83.50;99706.03;5045755;28;20048;-72
2022/09/22 05:22:40;;;;;;;0.47;0.10;;;;;;;10.82;83.37;99709.59;5047341;28;20055;-73
2022/09/22 05:25:09;;;;;;;0.10;0.10;;;;;;;10.84;83.44;99699.19;5048608;28;20095;-73
2022/09/22 05:27:41;;;;;;;0.10;0.10;;;;;;;10.95;83.50;99704.63;5044165;28;20291;-70
2022/09/22 05:30:08;;;;;;;0.40;0.20;;;;;;;11.02;83.17;99705.97;5043018;28;20052;-72
2022/09/22 05:32:34;;;;;;;0.10;0.10;;;;;;;11.01;82.66;99707.06;5046580;28;20135;-72
2022/09/22 05:35:02;;;;;;;0.10;0.10;;;;;;;10.93;82.97;99707.66;5022794;28;20149;-72
2022/09/22 05:37:28;;;;;;;0.20;0.20;;;;;;;11.02;83.50;99707.88;5025215;28;20053;-72
2022/09/22 05:39:55;;;;;;;0.20;0.20;;;;;;;10.98;82.98;99684.94;5047889;28;20051;-72
2022/09/22 05:42:22;;;;;;;0.20;0.20;;;;;;;11.08;82.92;99695.81;5031756;28;20823;-72
2022/09/22 05:44:48;;;;;;;0.43;0.20;;;;;;;11.02;82.85;99692.28;5032957;28;20532;-72
2022/09/22 05:47:14;;;;;;;0.10;0.10;;;;;;;10.99;82.62;99694.75;5047486;28;20056;-72
2022/09/22 05:49:40;;;;;;;0.20;0.20;;;;;;;10.99;82.77;99695.56;5044706;28;20443;-73
2022/09/22 05:52:08;;;;;;;0.15;0.15;;;;;;;10.98;82.19;99704.06;5052144;28;20055;-72
2022/09/22 05:54:34;;;;;;;0.10;0.10;;;;;;;10.98;81.81;99704.06;5053168;28;20075;-72
2022/09/22 05:57:00;;;;;;;0.20;0.20;;;;;;;10.99;82.06;99703.78;5032532;28;20049;-71
2022/09/22 05:59:26;;;;;;;0.20;0.20;;;;;;;11.08;81.75;99706.75;5030093;28;20041;-71
2022/09/22 06:01:52;;;;;;;0.20;0.20;;;;;;;11.17;81.60;99705.06;5024405;28;20041;-72
2022/09/22 06:04:19;;;;;;;0.20;0.20;;;;;;;11.23;80.88;99703.13;5041002;28;20056;-72
2022/09/22 06:06:46;;;;;;;0.20;0.20;;;;;;;11.25;80.85;99694.66;5054244;28;20426;-72
2022/09/22 06:09:14;;;;;;;0.20;0.20;;;;;;;11.28;79.99;99702.28;5063893;28;20049;-71
2022/09/22 06:11:40;;;;;;;0.20;0.20;;;;;;;11.30;79.96;99703.63;5061993;28;20044;-71
2022/09/22 06:14:06;;;;;;;0.20;0.20;;;;;;;11.31;79.99;99702.53;5062370;28;20470;-71
2022/09/22 06:16:32;;;;;;;0.20;0.20;;;;;;;11.46;79.74;99706.28;5066908;28;20512;-70
2022/09/22 06:18:58;;;;;;;0.30;0.30;;;;;;;11.62;79.48;99702.34;5068549;28;20573;-73
2022/09/22 06:21:25;;;;;;;0.22;0.22;;;;;;;11.87;78.80;99699.72;5029145;28;20049;-73
2022/09/22 06:23:51;;;;;;;0.20;0.20;;;;;;;11.99;78.59;99702.91;5018206;28;20057;-73
2022/09/22 06:26:19;;;;;;;0.20;0.20;;;;;;;11.95;78.23;99706.53;5030791;28;20072;-73
2022/09/22 06:28:45;;;;;;;0.30;0.30;;;;;;;11.97;78.46;99705.09;5068020;28;20336;-72
2022/09/22 06:31:13;;;;;;;0.20;0.20;;;;;;;12.04;78.03;99702.91;5069588;28;20130;-72
2022/09/22 06:33:45;;;;;;;0.20;0.20;;;;;;;12.07;77.67;99696.00;5067191;28;20048;-72
2022/09/22 06:36:12;;;;;;;0.20;0.20;;;;;;;12.08;77.64;99700.38;5065711;28;20388;-72
2022/09/22 06:38:38;;;;;;;0.20;0.20;;;;;;;11.95;78.02;99699.09;5066373;28;20080;-72
2022/09/22 06:41:05;;;;;;;0.20;0.20;;;;;;;11.89;78.47;99698.31;5068339;28;20044;-72
2022/09/22 06:43:36;;;;;;;0.22;0.22;;;;;;;11.88;78.54;99696.69;5068877;28;20434;-72
2022/09/22 06:46:02;;;;;;;0.20;0.20;;;;;;;11.92;78.75;99695.00;5068313;28;20428;-74
2022/09/22 06:48:30;;;;;;;0.20;0.20;;;;;;;11.94;78.43;99702.94;5049660;28;20044;-72
2022/09/22 06:50:56;;;;;;;0.38;0.30;;;;;;;11.90;78.40;99697.22;5070458;28;20449;-72
2022/09/22 06:53:23;;;;;;;0.20;0.20;;;;;;;11.96;78.29;99702.66;5068965;28;20076;-72
2022/09/22 06:55:49;;;;;;;0.20;0.20;;;;;;;12.02;77.67;99704.28;5070745;28;20439;-72
2022/09/22 06:58:15;;;;;;;0.20;0.20;;;;;;;11.99;76.82;99713.84;5067579;28;20047;-72
2022/09/22 07:00:43;;;;;;;0.20;0.20;;;;;;;11.98;77.04;99711.41;5057348;28;20044;-72
2022/09/22 07:03:14;;;;;;;;;;;;;;;12.05;76.80;99715.50;5048597;28;20080;-72
2022/09/22 07:05:41;;;;;;;0.20;0.20;;;;;;;12.14;76.42;99709.38;5049687;28;19925;-72
2022/09/22 07:08:08;;;;;;;0.32;0.30;;;;;;;12.36;76.07;99711.66;5047733;28;20095;-72
2022/09/22 07:10:37;;;;;;;0.20;0.20;;;;;;;12.52;74.95;99701.38;5049838;28;20508;-73
2022/09/22 07:13:04;;;;;;;0.30;0.30;;;;;;;12.68;74.40;99709.44;5051795;28;20053;-72
2022/09/22 07:15:30;;;;;;;0.20;0.20;;;;;;;12.81;73.70;99696.94;5048017;28;20369;-71
2022/09/22 07:17:57;;;;;;;0.20;0.20;;;;;;;12.85;73.23;99701.53;5044610;28;20049;-72
2022/09/22 07:20:23;;;;;;;;;;;;;;;12.77;73.10;99697.53;5047834;28;20095;-72
2022/09/22 07:22:56;;;;;;;0.25;0.25;;;;;;;12.57;73.83;99714.22;5051047;28;20044;-72
2022/09/22 07:25:22;;;;;;;0.20;0.20;;;;;;;12.22;74.55;99689.59;5030646;28;20052;-72
2022/09/22 07:27:49;;;;;;;0.20;0.20;;;;;;;12.27;74.97;99710.66;5054267;28;20117;-72
2022/09/22 07:30:15;;;;;;;0.20;0.20;;;;;;;12.22;75.28;99714.25;5054978;28;20520;-72
2022/09/22 07:32:41;;;;;;;0.20;0.20;;;;;;;12.18;75.38;99713.22;5057541;28;20052;-72
2022/09/22 07:35:09;;;;;;;0.20;0.20;;;;;;;12.17;75.11;99722.50;5040692;28;20052;-72
2022/09/22 07:37:39;;;;;;;0.20;0.20;;;;;;;12.12;74.97;99726.13;5066410;28;20048;-72
2022/09/22 07:40:06;;;;;;;0.20;0.20;;;;;;;12.07;75.27;99720.69;5065711;28;20045;-71
2022/09/22 07:42:32;;;;;;;0.25;0.25;;;;;;;12.00;75.92;99715.50;5048533;28;20417;-72
2022/09/22 07:45:14;;;;;;;0.93;0.30;;;;;;;11.99;75.96;99724.00;5048690;28;20055;-72
2022/09/22 07:50:29;;;;;;;0.70;0.30;;;;;;;11.87;77.06;99738.09;5048447;28;20049;-72
2022/09/22 07:52:55;;;;;;;0.20;0.20;;;;;;;11.82;77.54;99736.19;5047916;28;20069;-72
2022/09/22 07:55:23;;;;;;;0.20;0.20;;;;;;;11.91;77.75;99739.13;5066816;28;20044;-72
2022/09/22 07:57:54;;;;;;;0.20;0.20;;;;;;;11.99;77.70;99733.03;5030985;28;20464;-71
2022/09/22 08:00:20;;;;;;;0.30;0.30;;;;;;;12.10;77.48;99735.75;5051924;28;20858;-72
2022/09/22 08:02:54;;;;;;;0.20;0.20;;;;;;;12.27;76.99;99736.13;5050881;28;20492;-73
2022/09/22 08:05:21;;;;;;;0.30;0.30;;;;;;;12.42;76.43;99745.31;5055297;28;20051;-72
2022/09/22 08:07:49;;;;;;;0.30;0.30;;;;;;;12.54;75.58;99742.19;5051891;28;20044;-72
2022/09/22 08:10:17;;;;;;;0.30;0.30;;;;;;;12.59;74.70;99736.69;5052759;28;20052;-72
2022/09/22 08:12:43;;;;;;;0.30;0.30;;;;;;;12.52;74.62;99734.28;5062350;28;20052;-71
2022/09/22 08:15:11;;;;;;;0.20;0.20;;;;;;;12.43;75.02;99736.81;5029976;28;20453;-71
2022/09/22 08:17:39;;;;;;;0.20;0.20;;;;;;;12.29;75.13;99727.63;5066924;28;20053;-72
2022/09/22 08:20:05;;;;;;;;;;;;;;;12.30;75.33;99727.31;5050235;28;20107;-72
2022/09/22 08:22:32;;;;;;;0.65;0.22;;;;;;;12.19;75.58;99726.59;5049337;28;19924;-72
2022/09/22 08:24:59;;;;;;;0.20;0.20;;;;;;;12.19;75.27;99728.53;5045719;28;20045;-72
2022/09/22 08:27:25;;;;;;;0.20;0.20;;;;;;;12.19;75.28;99729.34;5063076;28;20040;-72
2022/09/22 08:29:52;;;;;;;0.30;0.30;;;;;;;12.36;74.88;99725.38;5065162;28;20515;-72
2022/09/22 08:32:18;;;;;;;0.30;0.30;;;;;;;12.58;74.19;99719.38;5064042;28;20610;-73
2022/09/22 08:34:44;;;;;;;0.30;0.30;;;;;;;12.93;73.36;99712.97;5066356;28;20122;-73
2022/09/22 08:37:12;;;;;;;0.30;0.30;;;;;;;13.40;70.92;99722.25;5053045;28;20075;-72
2022/09/22 08:39:38;;;;;;;0.20;0.20;;;;;;;13.45;69.97;99713.16;5055378;28;20047;-72
2022/09/22 08:42:12;;;;;;;0.30;0.30;;;;;;;13.17;70.15;99715.69;5053903;28;20048;-73
2022/09/22 08:44:45;;;;;;;0.20;0.20;;;;;;;13.08;70.58;99722.97;5064876;28;20535;-72
2022/09/22 08:51:50;;;;;;;0.20;0.20;;;;;;;13.07;70.80;99733.09;5065080;28;20149;-72
2022/09/22 08:53:05;;;;;;;0.20;0.20;;;;;;;13.12;70.68;99726.75;5065808;28;20068;-72
2022/09/22 08:55:31;;;;;;;0.30;0.30;;;;;;;13.06;70.83;99728.72;5064674;28;20050;-72
2022/09/22 08:58:06;;;;;;;0.20;0.20;;;;;;;12.98;71.10;99734.88;5064449;28;20530;-72
2022/09/22 09:00:36;;;;;;;0.22;0.22;;;;;;;12.83;71.88;99739.44;5066394;28;20048;-70
2022/09/22 09:03:19;;;;;;;0.35;0.28;;;;;;;12.66;72.39;99728.09;5064136;28;20052;-72
2022/09/22 09:06:05;;;;;;;0.30;0.30;;;;;;;12.54;73.39;99740.28;5057767;28;20139;-72
2022/09/22 09:09:03;;;;;;;0.20;0.20;;;;;;;12.39;74.09;99735.75;5065030;28;20510;-72
2022/09/22 09:11:40;;;;;;;0.20;0.20;;;;;;;12.31;74.51;99742.66;5025181;28;20423;-72
2022/09/22 09:14:18;;;;;;;0.20;0.20;;;;;;;12.27;74.50;99740.81;5063703;28;20044;-72
2022/09/22 09:16:57;;;;;;;0.20;0.20;;;;;;;12.16;74.95;99734.56;5051583;28;20040;-70
2022/09/22 09:19:29;;;;;;;0.20;0.20;;;;;;;12.18;75.11;99749.63;5045125;28;20055;-72
2022/09/22 09:21:59;;;;;;;0.20;0.20;;;;;;;12.14;75.28;99745.00;5046611;28;20076;-73
2022/09/22 09:24:30;;;;;;;0.20;0.20;;;;;;;12.09;74.94;99742.31;5046341;28;20048;-72
2022/09/22 09:26:59;;;;;;;0.20;0.20;;;;;;;12.22;75.40;99740.84;5046155;28;20045;-72
2022/09/22 09:29:33;;;;;;;0.20;0.20;;;;;;;12.47;74.72;99743.34;5022710;28;20049;-72
2022/09/22 09:32:10;;;;;;;0.20;0.20;;;;;;;12.70;74.11;99753.84;5025348;28;20505;-73
2022/09/22 09:34:36;;;;;;;0.20;0.20;;;;;;;12.72;73.52;99746.13;5008832;28;20045;-72
2022/09/22 09:37:09;;;;;;;0.13;0.13;;;;;;;12.63;73.12;99744.00;5026255;28;20072;-72
2022/09/22 09:39:38;;;;;;;0.20;0.20;;;;;;;12.43;74.11;99739.56;5046950;28;20087;-72
2022/09/22 09:42:16;;;;;;;0.30;0.30;;;;;;;12.51;73.84;99740.03;5049285;28;20052;-71
2022/09/22 09:44:46;;;;;;;0.30;0.30;;;;;;;12.83;73.09;99733.94;5064724;28;20053;-72
2022/09/22 09:47:21;;;;;;;0.30;0.30;;;;;;;14.18;68.91;99729.34;5048363;28;20060;-72
2022/09/22 09:49:50;;;;;;;0.30;0.30;;;;;;;14.35;66.46;99728.81;5053447;28;20430;-73
2022/09/22 09:52:16;;;;;;;0.30;0.30;;;;;;;14.12;66.73;99738.81;5030674;28;20554;-72
2022/09/22 09:54:45;;;;;;;0.43;0.30;;;;;;;14.00;67.46;99731.84;5067534;28;20512;-72
2022/09/22 09:57:13;;;;;;;0.57;0.30;;;;;;;14.06;67.24;99740.03;5062222;28;21167;-72
2022/09/22 10:02:30;;;;;;;0.30;0.30;;;;;;;14.18;67.04;99734.84;5048211;28;20049;-71
2022/09/22 10:04:59;;;;;;;0.20;0.20;;;;;;;13.96;67.02;99739.06;5049865;28;20342;-72
2022/09/22 10:07:28;;;;;;;0.20;0.20;;;;;;;13.65;67.90;99736.78;5051062;28;20852;-71
2022/09/22 10:09:55;;;;;;;0.30;0.30;;;;;;;13.43;68.85;99729.09;5059002;28;20580;-72
2022/09/22 10:12:24;;;;;;;0.30;0.30;;;;;;;13.63;68.87;99733.50;5049828;28;20072;-72
2022/09/22 10:14:52;;;;;;;0.30;0.30;;;;;;;13.88;67.76;99732.31;5059752;28;20051;-72
2022/09/22 10:17:20;;;;;;;0.30;0.30;;;;;;;13.99;67.14;99730.22;5062530;28;20295;-72
2022/09/22 10:19:49;;;;;;;0.30;0.30;;;;;;;14.09;66.65;99725.69;5067965;28;20052;-72
2022/09/22 10:22:24;;;;;;;0.30;0.30;;;;;;;13.95;66.21;99728.34;5051218;28;20090;-72
2022/09/22 10:24:59;;;;;;;0.22;0.22;;;;;;;13.84;66.69;99714.78;5069293;28;20530;-72
2022/09/22 10:27:27;;;;;;;0.30;0.30;;;;;;;13.67;66.91;99720.00;5049485;28;20055;-72
2022/09/22 10:30:26;;;;;;;0.20;0.20;;;;;;;13.33;67.52;99684.16;5064116;28;20439;-71
2022/09/22 10:33:14;;;;;;;0.30;0.30;;;;;;;13.57;67.18;99713.53;5049083;28;20049;-71
2022/09/22 10:35:44;;;;;;;0.30;0.30;;;;;;;13.41;66.62;99682.69;5054158;28;20653;-72
2022/09/22 10:38:19;;;;;;;0.20;0.20;;;;;;;13.67;66.56;99712.56;5033567;28;20052;-72
2022/09/22 10:40:49;;;;;;;0.43;0.35;;;;;;;13.73;66.45;99724.31;5052671;28;20053;-73
2022/09/22 10:43:34;;;;;;;0.40;0.30;;;;;;;13.68;66.52;99719.69;5057222;28;20144;-72
2022/09/22 10:46:18;;;;;;;0.20;0.20;;;;;;;13.60;66.98;99712.94;5034954;28;20419;-72
2022/09/22 10:48:47;;;;;;;0.32;0.30;;;;;;;13.63;66.89;99711.53;5069983;28;20059;-72
2022/09/22 10:51:29;;;;;;;0.25;0.25;;;;;;;13.59;66.83;99710.50;5066663;28;20056;-72
2022/09/22 10:54:16;;;;;;;0.20;0.20;;;;;;;13.61;67.23;99714.56;5067742;28;20063;-72
2022/09/22 10:56:48;;;;;;;0.20;0.20;;;;;;;13.54;67.00;99699.56;5066419;28;20037;-72
2022/09/22 10:59:34;;;;;;;0.32;0.30;;;;;;;13.59;67.17;99716.00;5056500;28;20053;-71
2022/09/22 11:02:27;;;;;;;0.20;0.20;;;;;;;13.50;67.33;99713.06;5058095;28;20060;-71
2022/09/22 11:05:07;;;;;;;0.30;0.30;;;;;;;13.60;67.59;99712.94;5059506;28;20143;-72
2022/09/22 11:13:48;;;;;;;0.20;0.20;;;;;;;13.94;65.84;99694.56;5043766;28;20504;-72
2022/09/22 11:16:37;;;;;;;0.20;0.20;;;;;;;14.01;65.43;99700.50;5050496;28;20142;-72
2022/09/22 11:19:30;;;;;;;0.30;0.30;;;;;;;14.06;64.82;99696.84;5044205;28;20136;-72
2022/09/22 11:22:15;;;;;;;0.20;0.20;;;;;;;14.05;65.08;99692.47;5049269;28;20500;-72
2022/09/22 11:25:01;;;;;;;0.20;0.20;;;;;;;14.00;64.43;99684.31;5054102;28;20048;-72
2022/09/22 11:27:42;;;;;;;0.20;0.20;;;;;;;14.00;64.49;99692.56;5067053;28;20051;-72
2022/09/22 11:30:19;;;;;;;0.20;0.20;;;;;;;14.00;64.71;99689.81;5067609;28;20045;-71
2022/09/22 11:33:07;;;;;;;0.27;0.27;;;;;;;14.03;64.46;99687.25;5068709;28;20102;-72
2022/09/22 11:35:49;;;;;;;0.30;0.30;;;;;;;13.97;64.76;99688.47;5055365;28;20423;-72
2022/09/22 11:38:47;;;;;;;0.20;0.20;;;;;;;13.86;65.18;99687.00;5049305;28;20045;-71
2022/09/22 11:41:27;;;;;;;0.25;0.22;;;;;;;13.82;65.64;99700.53;5048065;28;20056;-72
2022/09/22 11:44:16;;;;;;;0.20;0.20;;;;;;;13.87;65.26;99689.47;5046101;28;20056;-72
2022/09/22 11:46:56;;;;;;;0.30;0.30;;;;;;;13.84;65.71;99681.00;5046081;28;20194;-72
2022/09/22 11:49:39;;;;;;;0.20;0.20;;;;;;;13.86;65.40;99679.59;5012944;28;20041;-72
2022/09/22 11:52:25;;;;;;;0.20;0.20;;;;;;;13.75;65.38;99670.69;5046754;28;20139;-72
2022/09/22 11:55:02;;;;;;;0.52;0.40;;;;;;;13.81;65.33;99676.09;5046661;28;20088;-72
2022/09/22 11:57:33;;;;;;;0.20;0.20;;;;;;;13.86;65.27;99663.09;5046972;28;20048;-71
2022/09/22 12:00:05;;;;;;;0.30;0.30;;;;;;;13.92;65.23;99674.00;5057843;28;20052;-72
2022/09/22 12:02:46;;;;;;;0.30;0.30;;;;;;;13.95;65.27;99671.47;5066568;28;20049;-72
2022/09/22 12:05:17;;;;;;;0.20;0.20;;;;;;;13.94;65.12;99666.25;5066011;28;20579;-72
2022/09/22 12:07:49;;;;;;;0.30;0.30;;;;;;;13.86;65.62;99668.59;5068081;28;20072;-72